Estación Meteorológica Peña el Pijo (Robertgarden) [ 12/09/19 17:15:43 CET ]

Fecha Hora Presion(HPa) Temp (°C) Humedad % Rocio (°C) Viento ( m/s) Direccion Lluvia 1Hora(mm) Lluvia 24H(mm) LLuvia Total(mm)
2019-Aug-05 01:01:42 1011.700 19.2 76 14.9         363.34
2019-Aug-05 02:01:48 1011.400 17.9 78 14.0         363.34
2019-Aug-05 03:02:18 1011.400 16.6 79 12.9         363.34
2019-Aug-05 04:02:09 1011.000 16.3 79 12.7         363.34
2019-Aug-05 05:04:08 1010.700 15.3 80 11.9         363.34
2019-Aug-05 06:01:44 1010.400 15.6 77 11.6         363.34
2019-Aug-05 07:01:53 1010.600 15.3 75 10.9         363.34
2019-Aug-05 08:01:49 1010.800 16.2 71 11.0         363.34
2019-Aug-05 09:01:46 1010.800 21.3 64 14.2         363.34
2019-Aug-05 10:01:40 1010.400 26.6 50 15.3         363.34
2019-Aug-05 11:01:46 1010.400 32.2 37 15.6         363.34
2019-Aug-05 12:01:32 1010.500 33.1 34 15.2         363.34
2019-Aug-05 13:01:29 1010.100 34.1 32 14.5 0.4 NNW     363.34
2019-Aug-05 14:01:41 1009.600 37.4 28 15.7         363.34
2019-Aug-05 15:01:42 1008.900 37.9 26 14.9         363.34
2019-Aug-05 16:01:55 1008.500 37.9 28 16.1         363.34
2019-Aug-05 17:02:03 1008.500 34.3 34 16.1         363.34
2019-Aug-05 18:02:05 1008.300 34.8 37 17.9 0.4 ESE     363.34
2019-Aug-05 19:01:42 1008.800 32.8 39 17.0         363.34
2019-Aug-05 20:01:51 1008.800 31.1 42 16.7         363.34
2019-Aug-05 21:01:58 1008.900 28.1 49 16.3         363.34
2019-Aug-05 22:01:34 1009.500 24.9 59 16.3         363.34
2019-Aug-05 23:01:53 1010.400 22.4 68 16.2         363.34

Temperatura Máxima:37°    Temperatura Mínima:15°
Presión Máxima:1011.700 Hpa    Presión Mínima:1008.300 Hpa


Volver